DLS weather

Columbia Gorge Regional the Dalles Municipal Airport
The Dalles, Oregon, United States

Public forecast

Using degrees Fahrenheit for public forecast. Weather courtesy of forecast.io.

Current aviation weather report (METAR) for Columbia Gorge Regional the Dalles Municipal Airport

Retrieved 2019/11/15 03:53 UTC (12 minutes ago):

KDLS 150353Z AUTO 08005KT 10SM OVC025 08/04 A3014 RMK AO2 SLP207 T00780039

Aviation forecast (TAF) for Columbia Gorge Regional the Dalles Municipal Airport

Retrieved 2019-11-15 00:22 UTC (4 hours ago):

TAF KDLS 142320Z 1500/1524 05005KT P6SM OVC025 TEMPO 1500/1503 SCT025 OVC100 FM150300 VRB02KT P6SM OVC020 FM150400 VRB02KT 5SM BR OVC015 FM150900 VRB02KT 1SM BR OVC005 FM151400 VRB03KT 2SM -RA BR OVC015 FM152100 32010KT P6SM OVC025